CMA CGM Amber — 2BHA6 — position and weather

sailwx.info

Track history (hours):
 
Tides and Currents Weather Stations Pressure Air Temp Water Temp Dewpoint Dewpoint Depression Visibility Wind Speed Wind Dir Waves Ship Positions

CMA CGM Amber

Last reported at 2018-Jul-17 02:13 UTC. Time now 2018-Jul-22 03:10 UTC.
Position N 26°14' W 079°10'.

Length 281 m; draft 10.1 m.

Type: Ship (hazmat cat A). MMSI: 235066053.

Date/timePositionNaut miles runAvg speedWind from/ knotsBaromVisibWave heightAir tempDewpointWater temp
2018-Jul-17 02:13N 26°14' W 079°10'416.9
2018-Jul-17 02:00N 26°11' W 079°13'917.3
2018-Jul-17 01:30N 26°05' W 079°20'816.6
2018-Jul-17 01:00N 26°00' W 079°27'918.1
2018-Jul-17 00:30N 25°54' W 079°35'1716.9
2018-Jul-16 23:30N 25°48' W 079°53'817.0
2018-Jul-16 23:00N 25°47' W 080°02'510.9
2018-Jul-16 22:30N 25°46' W 080°08'1 2.2
2018-Jul-16 21:59N 25°46' W 080°09'0 0.0
2018-Jul-16 21:29N 25°46' W 080°09'0 0.0
2018-Jul-16 20:59N 25°46' W 080°09'0 0.0
2018-Jul-16 20:29N 25°46' W 080°09'0 0.0
2018-Jul-16 19:59N 25°46' W 080°09'0 0.0
2018-Jul-16 19:28N 25°46' W 080°09'0 0.0
2018-Jul-16 18:58N 25°46' W 080°09'0 0.0
2018-Jul-16 18:25N 25°46' W 080°09'0 0.0
2018-Jul-16 17:58N 25°46' W 080°09'0 0.0
2018-Jul-16 17:27N 25°46' W 080°09'0 0.0
2018-Jul-16 17:00N 25°46' W 080°09'0 0.0
2018-Jul-16 16:30N 25°46' W 080°09'0 0.0
2018-Jul-16 16:00N 25°46' W 080°09'0 0.0
2018-Jul-16 15:30N 25°46' W 080°09'0 0.0
2018-Jul-16 14:59N 25°46' W 080°09'0 0.0
2018-Jul-16 14:29N 25°46' W 080°09'0 0.0
2018-Jul-16 13:56N 25°46' W 080°09'0 0.0
2018-Jul-16 13:29N 25°46' W 080°09'0 0.0
2018-Jul-16 12:59N 25°46' W 080°09'0 0.0
2018-Jul-16 12:28N 25°46' W 080°09'0 0.0
2018-Jul-16 11:58N 25°46' W 080°09'0 0.0
2018-Jul-16 11:25N 25°46' W 080°09'0 0.0
2018-Jul-16 10:58N 25°46' W 080°09'0 0.0
2018-Jul-16 10:30N 25°46' W 080°09'0 0.0
2018-Jul-16 10:00N 25°46' W 080°09'3 5.5
2018-Jul-16 09:30N 25°46' W 080°06'611.0
2018-Jul-16 09:00N 25°47' W 080°00'3 6.8
2018-Jul-16 08:31N 25°49' W 079°57'4 8.1
2018-Jul-16 08:00N 25°53' W 079°57'611.9
2018-Jul-16 07:30N 25°59' W 079°56'612.3
2018-Jul-16 07:00N 26°05' W 079°55'612.6
2018-Jul-16 06:30N 26°11' W 079°54'612.3
2018-Jul-16 06:00N 26°17' W 079°52'612.6
2018-Jul-16 05:31N 26°23' W 079°51'712.8
2018-Jul-16 04:58N 26°30' W 079°50'3013.0
2018-Jul-16 02:39N 26°60' W 079°50'1813.5
2018-Jul-16 01:17N 27°18' W 079°50'813.5
2018-Jul-16 00:40N 27°27' W 079°50'313.3
2018-Jul-16 00:26N 27°30' W 079°50'713.2
2018-Jul-15 23:55N 27°37' W 079°50'613.0
2018-Jul-15 23:28N 27°43' W 079°50'25313.4
2018-Jul-15 04:36N 31°54' W 080°16'716.0
2018-Jul-15 04:09N 31°56' W 080°25'216.2
2018-Jul-15 04:00N 31°56' W 080°27'816.0
2018-Jul-15 03:30N 31°56' W 080°37'611.9
2018-Jul-15 02:59N 31°58' W 080°43'613.2
2018-Jul-15 02:31N 32°02' W 080°49'611.0
2018-Jul-15 02:00N 32°03' W 080°56'510.2
2018-Jul-15 01:30N 32°06' W 081°00'4 7.3
2018-Jul-15 01:00N 32°05' W 081°04'3 5.1
2018-Jul-15 00:30N 32°06' W 081°07'2 4.2
2018-Jul-15 00:00N 32°08' W 081°08'0 0.3
2018-Jul-14 23:28N 32°08' W 081°08'0 0.0
2018-Jul-14 22:58N 32°08' W 081°08'0 0.0
2018-Jul-14 22:21N 32°08' W 081°08'0 0.0
2018-Jul-14 21:57N 32°08' W 081°08'0 0.0
2018-Jul-14 21:27N 32°08' W 081°08'0 0.0
2018-Jul-14 20:57N 32°08' W 081°08'0 0.0
2018-Jul-14 20:26N 32°08' W 081°08'0 0.0
2018-Jul-14 19:50N 32°08' W 081°08'0 0.0
2018-Jul-14 19:20N 32°08' W 081°08'0 0.0
2018-Jul-14 18:56N 32°08' W 081°08'0 0.0
2018-Jul-14 18:26N 32°08' W 081°08'0 0.0
2018-Jul-14 17:55N 32°08' W 081°08'0 0.0
2018-Jul-14 17:19N 32°08' W 081°08'0 0.0
2018-Jul-14 16:43N 32°08' W 081°08'0 0.0
2018-Jul-14 16:25N 32°08' W 081°08'0 0.0
2018-Jul-14 16:00N 32°08' W 081°08'0 0.0
2018-Jul-14 15:30N 32°08' W 081°08'0 0.0
2018-Jul-14 15:00N 32°08' W 081°08'0 0.0
2018-Jul-14 14:00N 32°08' W 081°08'0 0.0
2018-Jul-14 13:29N 32°08' W 081°08'0 0.0
2018-Jul-14 12:59N 32°08' W 081°08'0 0.0
2018-Jul-14 12:29N 32°08' W 081°08'0 0.0
2018-Jul-14 11:59N 32°08' W 081°08'0 0.0
2018-Jul-14 11:22N 32°08' W 081°08'0 0.0
2018-Jul-14 10:52N 32°08' W 081°08'0 0.0
2018-Jul-14 10:28N 32°08' W 081°08'0 0.1
2018-Jul-14 10:00N 32°08' W 081°08'2 4.4
2018-Jul-14 09:30N 32°06' W 081°07'2 5.0
2018-Jul-14 09:01N 32°05' W 081°04'3 5.4
2018-Jul-14 08:30N 32°06' W 081°01'4 8.5
2018-Jul-14 08:00N 32°04' W 080°57'3 6.6
2018-Jul-14 07:30N 32°02' W 080°53'611.2
2018-Jul-14 07:00N 31°60' W 080°47'4 8.2
2018-Jul-14 06:30N 31°58' W 080°43'3 5.9
2018-Jul-14 06:00N 31°57' W 080°40'612.3
2018-Jul-14 05:30N 31°56' W 080°33'38615.6
2018-Jul-13 04:43N 36°28' W 075°02'919.3
2018-Jul-13 04:16N 36°34' W 075°10'619.2
2018-Jul-13 03:57N 36°37' W 075°16'918.6
2018-Jul-13 03:28N 36°43' W 075°25'1117.8
2018-Jul-13 02:51N 36°45' W 075°38'717.5
2018-Jul-13 02:28N 36°48' W 075°46'817.1
2018-Jul-13 02:00N 36°53' W 075°54'713.5
2018-Jul-13 01:30N 36°57' W 076°01'510.8
2018-Jul-13 01:00N 36°59' W 076°07'814.2
2018-Jul-13 00:26N 37°00' W 076°17'510.8
2018-Jul-13 00:01N 36°56' W 076°20'4 8.4
2018-Jul-12 23:30N 36°52' W 076°20'1 1.5
2018-Jul-12 22:55N 36°51' W 076°19'0 0.0
2018-Jul-12 22:28N 36°51' W 076°19'0 0.0
2018-Jul-12 21:58N 36°51' W 076°19'0 0.0
2018-Jul-12 21:24N 36°51' W 076°19'0 0.0
2018-Jul-12 20:33N 36°51' W 076°19'0 0.0
2018-Jul-12 20:03N 36°51' W 076°19'0 0.0
2018-Jul-12 19:51N 36°51' W 076°19'0 0.0
2018-Jul-12 19:30N 36°51' W 076°19'0 0.0
2018-Jul-12 18:41N 36°51' W 076°19'0 0.0
2018-Jul-12 18:11N 36°51' W 076°19'0 0.0
2018-Jul-12 17:44N 36°51' W 076°19'0 0.0
2018-Jul-12 17:29N 36°51' W 076°19'0 0.0
2018-Jul-12 16:59N 36°51' W 076°19'0 0.0
2018-Jul-12 15:40N 36°51' W 076°19'0 0.0
2018-Jul-12 15:28N 36°51' W 076°19'0 0.0
2018-Jul-12 14:58N 36°51' W 076°19'0 0.0
2018-Jul-12 14:30N 36°51' W 076°19'0 0.0
2018-Jul-12 14:00N 36°51' W 076°19'0 0.0
2018-Jul-12 13:24N 36°51' W 076°19'0 0.0
2018-Jul-12 12:42N 36°51' W 076°19'0 0.0
2018-Jul-12 12:21N 36°51' W 076°19'0 0.0
2018-Jul-12 11:56N 36°51' W 076°19'0 0.0
2018-Jul-12 11:29N 36°51' W 076°19'0 0.0
2018-Jul-12 10:50N 36°51' W 076°19'0 0.0
2018-Jul-12 10:29N 36°51' W 076°19'0 0.0
2018-Jul-12 09:56N 36°51' W 076°19'0 0.0
2018-Jul-12 09:28N 36°51' W 076°19'0 0.0
2018-Jul-12 08:58N 36°51' W 076°19'0 0.5
2018-Jul-12 08:30N 36°52' W 076°19'2 4.1
2018-Jul-12 08:00N 36°54' W 076°20'3 7.0
2018-Jul-12 07:30N 36°57' W 076°20'7511.2
2018-Jul-12 00:52N 37°12' W 074°49'513.1
2018-Jul-12 00:30N 37°17' W 074°47'713.1
2018-Jul-11 23:58N 37°23' W 074°44'613.1
2018-Jul-11 23:31N 37°29' W 074°41'1213.4
2018-Jul-11 22:36N 37°41' W 074°36'113.0
2018-Jul-11 22:30N 37°42' W 074°36'913.3
2018-Jul-11 21:49N 37°50' W 074°32'1313.4
2018-Jul-11 20:52N 38°02' W 074°26'513.3
2018-Jul-11 20:30N 38°07' W 074°24'613.1
2018-Jul-11 20:00N 38°13' W 074°21'713.4
2018-Jul-11 19:30N 38°19' W 074°18'612.8
2018-Jul-11 19:00N 38°25' W 074°16'713.0
2018-Jul-11 18:30N 38°32' W 074°13'813.0
2018-Jul-11 17:53N 38°39' W 074°10'513.2
2018-Jul-11 17:30N 38°44' W 074°07'3812.9
2018-Jul-11 14:34N 39°20' W 073°54'113.1
2018-Jul-11 14:29N 39°21' W 073°54'613.2
2018-Jul-11 14:00N 39°28' W 073°53'1013.1
2018-Jul-11 13:16N 39°37' W 073°52'413.3
2018-Jul-11 13:00N 39°41' W 073°52'713.2
2018-Jul-11 12:30N 39°48' W 073°51'713.2
2018-Jul-11 12:00N 39°54' W 073°51'714.7
2018-Jul-11 11:30N 40°01' W 073°50'817.1
2018-Jul-11 11:00N 40°10' W 073°49'1516.8
2018-Jul-11 10:06N 40°25' W 073°49'212.8
2018-Jul-11 09:56N 40°27' W 073°50'612.8
2018-Jul-11 09:30N 40°30' W 073°56'713.5
2018-Jul-11 09:00N 40°35' W 074°02'5 9.7
2018-Jul-11 08:30N 40°39' W 074°05'3 6.0
2018-Jul-11 08:00N 40°39' W 074°09'2 4.0
2018-Jul-11 07:30N 40°41' W 074°09'0 0.8
2018-Jul-11 07:00N 40°41' W 074°09'0 0.0
2018-Jul-11 06:14N 40°41' W 074°09'0 0.0
2018-Jul-11 05:59N 40°41' W 074°09'0 0.0
2018-Jul-11 05:29N 40°41' W 074°09'0 0.0
2018-Jul-11 04:59N 40°41' W 074°09'0 0.0
2018-Jul-11 04:29N 40°41' W 074°09'0 0.0
2018-Jul-11 03:58N 40°41' W 074°09'0 0.0
2018-Jul-11 03:28N 40°41' W 074°09'0 0.0
2018-Jul-11 02:58N 40°41' W 074°09'0 0.0
2018-Jul-11 02:28N 40°41' W 074°09'0 0.0
2018-Jul-11 01:58N 40°41' W 074°09'0 0.0
2018-Jul-11 01:30N 40°41' W 074°09'0 0.0
2018-Jul-11 01:00N 40°41' W 074°09'0 0.0
2018-Jul-11 00:30N 40°41' W 074°09'0 0.0
2018-Jul-11 00:00N 40°41' W 074°09'0 0.0
2018-Jul-10 23:30N 40°41' W 074°09'0 0.0
2018-Jul-10 22:59N 40°41' W 074°09'0 0.0
2018-Jul-10 22:29N 40°41' W 074°09'0 0.0
2018-Jul-10 21:59N 40°41' W 074°09'0 0.0
2018-Jul-10 21:29N 40°41' W 074°09'0 0.0
2018-Jul-10 20:55N 40°41' W 074°09'0 0.0
2018-Jul-10 20:25N 40°41' W 074°09'0 0.0
2018-Jul-10 19:58N 40°41' W 074°09'0 0.0
2018-Jul-10 19:28N 40°41' W 074°09'0 0.0
2018-Jul-10 18:55N 40°41' W 074°09'0 0.0
2018-Jul-10 18:27N 40°41' W 074°09'0 0.0
2018-Jul-10 18:00N 40°41' W 074°09'0 0.0
2018-Jul-10 17:30N 40°41' W 074°09'0 0.1
2018-Jul-10 16:57N 40°41' W 074°09'0 0.0
2018-Jul-10 16:30N 40°41' W 074°09'0 0.0
2018-Jul-10 15:56N 40°41' W 074°09'0 0.0
2018-Jul-10 15:29N 40°41' W 074°09'0 0.0
2018-Jul-10 14:59N 40°41' W 074°09'0 0.0
2018-Jul-10 14:26N 40°41' W 074°09'0 0.0
2018-Jul-10 13:58N 40°41' W 074°09'0 0.0
2018-Jul-10 13:28N 40°41' W 074°09'0 0.0
2018-Jul-10 12:58N 40°41' W 074°09'0 0.0
2018-Jul-10 12:28N 40°41' W 074°09'0 0.0
2018-Jul-10 11:58N 40°41' W 074°09'0 0.0
2018-Jul-10 11:30N 40°41' W 074°09'0 0.0
2018-Jul-10 11:00N 40°41' W 074°09'0 0.0
2018-Jul-10 10:24N 40°41' W 074°09'0 0.0
2018-Jul-10 10:00N 40°41' W 074°09'0 0.0
2018-Jul-10 09:30N 40°41' W 074°09'0 0.0
2018-Jul-10 08:56N 40°41' W 074°09'0 0.0
2018-Jul-10 08:29N 40°41' W 074°09'0 0.0
2018-Jul-10 07:59N 40°41' W 074°09'0 0.0
2018-Jul-10 07:29N 40°41' W 074°09'0 0.0
2018-Jul-10 06:59N 40°41' W 074°09'0 0.0
2018-Jul-10 06:28N 40°41' W 074°09'0 0.0
2018-Jul-10 05:58N 40°41' W 074°09'0 0.0
2018-Jul-10 05:25N 40°41' W 074°09'0 0.0
2018-Jul-10 04:58N 40°41' W 074°09'0 0.0
2018-Jul-10 04:27N 40°41' W 074°09'0 0.0
2018-Jul-10 04:00N 40°41' W 074°09'0 0.0
2018-Jul-10 03:27N 40°41' W 074°09'0 0.0
2018-Jul-10 03:00N 40°41' W 074°09'0 0.0
2018-Jul-10 02:29N 40°41' W 074°09'0 0.0
2018-Jul-10 01:59N 40°41' W 074°09'0 0.0
2018-Jul-10 01:26N 40°41' W 074°09'0 0.0
2018-Jul-10 00:56N 40°41' W 074°09'0 0.0
2018-Jul-10 00:29N 40°41' W 074°09'0 0.0
2018-Jul-09 23:55N 40°41' W 074°09'0 0.0
2018-Jul-09 23:19N 40°41' W 074°09'0 0.0
2018-Jul-09 22:52N 40°41' W 074°09'0 0.0
2018-Jul-09 22:25N 40°41' W 074°09'0 0.0
2018-Jul-09 21:55N 40°41' W 074°09'0 0.0
2018-Jul-09 21:27N 40°41' W 074°09'0 0.0
2018-Jul-09 21:00N 40°41' W 074°09'1 1.9
2018-Jul-09 20:30N 40°40' W 074°08'2 3.1
2018-Jul-09 20:00N 40°39' W 074°09'3 6.0
2018-Jul-09 19:30N 40°39' W 074°05'4 7.3
2018-Jul-09 19:00N 40°36' W 074°02'714.3
2018-Jul-09 18:31N 40°30' W 073°57'714.2
2018-Jul-09 18:00N 40°27' W 073°48'2311.6
2018-Jul-09 16:01N 40°29' W 073°18'012.5
2018-Jul-09 15:59N 40°29' W 073°17'713.8
2018-Jul-09 15:28N 40°30' W 073°08'713.9
2018-Jul-09 15:00N 40°31' W 072°60'714.0
2018-Jul-09 14:30N 40°31' W 072°51'814.3
2018-Jul-09 13:58N 40°31' W 072°41'914.6
2018-Jul-09 13:22N 40°31' W 072°29'614.4
2018-Jul-09 12:58N 40°31' W 072°22'714.3
2018-Jul-09 12:30N 40°31' W 072°13'714.1
2018-Jul-09 12:01N 40°31' W 072°04'714.0
2018-Jul-09 11:30N 40°31' W 071°54'713.5
2018-Jul-09 11:00N 40°31' W 071°45'713.4
2018-Jul-09 10:30N 40°32' W 071°37'713.5
2018-Jul-09 09:58N 40°32' W 071°27'613.5
2018-Jul-09 09:30N 40°32' W 071°19'713.3
2018-Jul-09 09:00N 40°32' W 071°10'713.7
2018-Jul-09 08:30N 40°32' W 071°01'713.4
2018-Jul-09 08:00N 40°33' W 070°52'713.6
2018-Jul-09 07:30N 40°33' W 070°43'813.8
2018-Jul-09 06:56N 40°33' W 070°33'1114.0
2018-Jul-09 06:08N 40°33' W 070°18'514.0
2018-Jul-09 05:47N 40°33' W 070°12'414.2
2018-Jul-09 05:30N 40°33' W 070°06'714.1
2018-Jul-09 05:00N 40°33' W 069°57'714.2
2018-Jul-09 04:30N 40°34' W 069°48'714.2
2018-Jul-09 04:00N 40°34' W 069°39'  
Track history (hours):
 
Tides and Currents Weather Stations Pressure Air Temp Water Temp Dewpoint Dewpoint Depression Visibility Wind Speed Wind Dir Waves Ship Positions

CMA CGM Amber

Last reported at 2018-Jul-17 02:13 UTC. Time now 2018-Jul-22 03:10 UTC.
Position N 26°14' W 079°10'.

Length 281 m; draft 10.1 m.

Type: Ship (hazmat cat A). MMSI: 235066053.

Date/timePositionNaut miles runAvg speedWind from/ knotsBaromVisibWave heightAir tempDewpointWater temp
2018-Jul-17 02:13N 26°14' W 079°10'416.9
2018-Jul-17 02:00N 26°11' W 079°13'917.3
2018-Jul-17 01:30N 26°05' W 079°20'816.6
2018-Jul-17 01:00N 26°00' W 079°27'918.1
2018-Jul-17 00:30N 25°54' W 079°35'1716.9
2018-Jul-16 23:30N 25°48' W 079°53'817.0
2018-Jul-16 23:00N 25°47' W 080°02'510.9
2018-Jul-16 22:30N 25°46' W 080°08'1 2.2
2018-Jul-16 21:59N 25°46' W 080°09'0 0.0
2018-Jul-16 21:29N 25°46' W 080°09'0 0.0
2018-Jul-16 20:59N 25°46' W 080°09'0 0.0
2018-Jul-16 20:29N 25°46' W 080°09'0 0.0
2018-Jul-16 19:59N 25°46' W 080°09'0 0.0
2018-Jul-16 19:28N 25°46' W 080°09'0 0.0
2018-Jul-16 18:58N 25°46' W 080°09'0 0.0
2018-Jul-16 18:25N 25°46' W 080°09'0 0.0
2018-Jul-16 17:58N 25°46' W 080°09'0 0.0
2018-Jul-16 17:27N 25°46' W 080°09'0 0.0
2018-Jul-16 17:00N 25°46' W 080°09'0 0.0
2018-Jul-16 16:30N 25°46' W 080°09'0 0.0
2018-Jul-16 16:00N 25°46' W 080°09'0 0.0
2018-Jul-16 15:30N 25°46' W 080°09'0 0.0
2018-Jul-16 14:59N 25°46' W 080°09'0 0.0
2018-Jul-16 14:29N 25°46' W 080°09'0 0.0
2018-Jul-16 13:56N 25°46' W 080°09'0 0.0
2018-Jul-16 13:29N 25°46' W 080°09'0 0.0
2018-Jul-16 12:59N 25°46' W 080°09'0 0.0
2018-Jul-16 12:28N 25°46' W 080°09'0 0.0
2018-Jul-16 11:58N 25°46' W 080°09'0 0.0
2018-Jul-16 11:25N 25°46' W 080°09'0 0.0
2018-Jul-16 10:58N 25°46' W 080°09'0 0.0
2018-Jul-16 10:30N 25°46' W 080°09'0 0.0
2018-Jul-16 10:00N 25°46' W 080°09'3 5.5
2018-Jul-16 09:30N 25°46' W 080°06'611.0
2018-Jul-16 09:00N 25°47' W 080°00'3 6.8
2018-Jul-16 08:31N 25°49' W 079°57'4 8.1
2018-Jul-16 08:00N 25°53' W 079°57'611.9
2018-Jul-16 07:30N 25°59' W 079°56'612.3
2018-Jul-16 07:00N 26°05' W 079°55'612.6
2018-Jul-16 06:30N 26°11' W 079°54'612.3
2018-Jul-16 06:00N 26°17' W 079°52'612.6
2018-Jul-16 05:31N 26°23' W 079°51'712.8
2018-Jul-16 04:58N 26°30' W 079°50'3013.0
2018-Jul-16 02:39N 26°60' W 079°50'1813.5
2018-Jul-16 01:17N 27°18' W 079°50'813.5
2018-Jul-16 00:40N 27°27' W 079°50'313.3
2018-Jul-16 00:26N 27°30' W 079°50'713.2
2018-Jul-15 23:55N 27°37' W 079°50'613.0
2018-Jul-15 23:28N 27°43' W 079°50'25313.4
2018-Jul-15 04:36N 31°54' W 080°16'716.0
2018-Jul-15 04:09N 31°56' W 080°25'216.2
2018-Jul-15 04:00N 31°56' W 080°27'816.0
2018-Jul-15 03:30N 31°56' W 080°37'611.9
2018-Jul-15 02:59N 31°58' W 080°43'613.2
2018-Jul-15 02:31N 32°02' W 080°49'611.0
2018-Jul-15 02:00N 32°03' W 080°56'510.2
2018-Jul-15 01:30N 32°06' W 081°00'4 7.3
2018-Jul-15 01:00N 32°05' W 081°04'3 5.1
2018-Jul-15 00:30N 32°06' W 081°07'2 4.2
2018-Jul-15 00:00N 32°08' W 081°08'0 0.3
2018-Jul-14 23:28N 32°08' W 081°08'0 0.0
2018-Jul-14 22:58N 32°08' W 081°08'0 0.0
2018-Jul-14 22:21N 32°08' W 081°08'0 0.0
2018-Jul-14 21:57N 32°08' W 081°08'0 0.0
2018-Jul-14 21:27N 32°08' W 081°08'0 0.0
2018-Jul-14 20:57N 32°08' W 081°08'0 0.0
2018-Jul-14 20:26N 32°08' W 081°08'0 0.0
2018-Jul-14 19:50N 32°08' W 081°08'0 0.0
2018-Jul-14 19:20N 32°08' W 081°08'0 0.0
2018-Jul-14 18:56N 32°08' W 081°08'0 0.0
2018-Jul-14 18:26N 32°08' W 081°08'0 0.0
2018-Jul-14 17:55N 32°08' W 081°08'0 0.0
2018-Jul-14 17:19N 32°08' W 081°08'0 0.0
2018-Jul-14 16:43N 32°08' W 081°08'0 0.0
2018-Jul-14 16:25N 32°08' W 081°08'0 0.0
2018-Jul-14 16:00N 32°08' W 081°08'0 0.0
2018-Jul-14 15:30N 32°08' W 081°08'0 0.0
2018-Jul-14 15:00N 32°08' W 081°08'0 0.0
2018-Jul-14 14:00N 32°08' W 081°08'0 0.0
2018-Jul-14 13:29N 32°08' W 081°08'0 0.0
2018-Jul-14 12:59N 32°08' W 081°08'0 0.0
2018-Jul-14 12:29N 32°08' W 081°08'0 0.0
2018-Jul-14 11:59N 32°08' W 081°08'0 0.0
2018-Jul-14 11:22N 32°08' W 081°08'0 0.0
2018-Jul-14 10:52N 32°08' W 081°08'0 0.0
2018-Jul-14 10:28N 32°08' W 081°08'0 0.1
2018-Jul-14 10:00N 32°08' W 081°08'2 4.4
2018-Jul-14 09:30N 32°06' W 081°07'2 5.0
2018-Jul-14 09:01N 32°05' W 081°04'3 5.4
2018-Jul-14 08:30N 32°06' W 081°01'4 8.5
2018-Jul-14 08:00N 32°04' W 080°57'3 6.6
2018-Jul-14 07:30N 32°02' W 080°53'611.2
2018-Jul-14 07:00N 31°60' W 080°47'4 8.2
2018-Jul-14 06:30N 31°58' W 080°43'3 5.9
2018-Jul-14 06:00N 31°57' W 080°40'612.3
2018-Jul-14 05:30N 31°56' W 080°33'38615.6
2018-Jul-13 04:43N 36°28' W 075°02'919.3
2018-Jul-13 04:16N 36°34' W 075°10'619.2
2018-Jul-13 03:57N 36°37' W 075°16'918.6
2018-Jul-13 03:28N 36°43' W 075°25'1117.8
2018-Jul-13 02:51N 36°45' W 075°38'717.5
2018-Jul-13 02:28N 36°48' W 075°46'817.1
2018-Jul-13 02:00N 36°53' W 075°54'713.5
2018-Jul-13 01:30N 36°57' W 076°01'510.8
2018-Jul-13 01:00N 36°59' W 076°07'814.2
2018-Jul-13 00:26N 37°00' W 076°17'510.8
2018-Jul-13 00:01N 36°56' W 076°20'4 8.4
2018-Jul-12 23:30N 36°52' W 076°20'1 1.5
2018-Jul-12 22:55N 36°51' W 076°19'0 0.0
2018-Jul-12 22:28N 36°51' W 076°19'0 0.0
2018-Jul-12 21:58N 36°51' W 076°19'0 0.0
2018-Jul-12 21:24N 36°51' W 076°19'0 0.0
2018-Jul-12 20:33N 36°51' W 076°19'0 0.0
2018-Jul-12 20:03N 36°51' W 076°19'0 0.0
2018-Jul-12 19:51N 36°51' W 076°19'0 0.0
2018-Jul-12 19:30N 36°51' W 076°19'0 0.0
2018-Jul-12 18:41N 36°51' W 076°19'0 0.0
2018-Jul-12 18:11N 36°51' W 076°19'0 0.0
2018-Jul-12 17:44N 36°51' W 076°19'0 0.0
2018-Jul-12 17:29N 36°51' W 076°19'0 0.0
2018-Jul-12 16:59N 36°51' W 076°19'0 0.0
2018-Jul-12 15:40N 36°51' W 076°19'0 0.0
2018-Jul-12 15:28N 36°51' W 076°19'0 0.0
2018-Jul-12 14:58N 36°51' W 076°19'0 0.0
2018-Jul-12 14:30N 36°51' W 076°19'0 0.0
2018-Jul-12 14:00N 36°51' W 076°19'0 0.0
2018-Jul-12 13:24N 36°51' W 076°19'0 0.0
2018-Jul-12 12:42N 36°51' W 076°19'0 0.0
2018-Jul-12 12:21N 36°51' W 076°19'0 0.0
2018-Jul-12 11:56N 36°51' W 076°19'0 0.0
2018-Jul-12 11:29N 36°51' W 076°19'0 0.0
2018-Jul-12 10:50N 36°51' W 076°19'0 0.0
2018-Jul-12 10:29N 36°51' W 076°19'0 0.0
2018-Jul-12 09:56N 36°51' W 076°19'0 0.0
2018-Jul-12 09:28N 36°51' W 076°19'0 0.0
2018-Jul-12 08:58N 36°51' W 076°19'0 0.5
2018-Jul-12 08:30N 36°52' W 076°19'2 4.1
2018-Jul-12 08:00N 36°54' W 076°20'3 7.0
2018-Jul-12 07:30N 36°57' W 076°20'7511.2
2018-Jul-12 00:52N 37°12' W 074°49'513.1
2018-Jul-12 00:30N 37°17' W 074°47'713.1
2018-Jul-11 23:58N 37°23' W 074°44'613.1
2018-Jul-11 23:31N 37°29' W 074°41'1213.4
2018-Jul-11 22:36N 37°41' W 074°36'113.0
2018-Jul-11 22:30N 37°42' W 074°36'913.3
2018-Jul-11 21:49N 37°50' W 074°32'1313.4
2018-Jul-11 20:52N 38°02' W 074°26'513.3
2018-Jul-11 20:30N 38°07' W 074°24'613.1
2018-Jul-11 20:00N 38°13' W 074°21'713.4
2018-Jul-11 19:30N 38°19' W 074°18'612.8
2018-Jul-11 19:00N 38°25' W 074°16'713.0
2018-Jul-11 18:30N 38°32' W 074°13'813.0
2018-Jul-11 17:53N 38°39' W 074°10'513.2
2018-Jul-11 17:30N 38°44' W 074°07'3812.9
2018-Jul-11 14:34N 39°20' W 073°54'113.1
2018-Jul-11 14:29N 39°21' W 073°54'613.2
2018-Jul-11 14:00N 39°28' W 073°53'1013.1
2018-Jul-11 13:16N 39°37' W 073°52'413.3
2018-Jul-11 13:00N 39°41' W 073°52'713.2
2018-Jul-11 12:30N 39°48' W 073°51'713.2
2018-Jul-11 12:00N 39°54' W 073°51'714.7
2018-Jul-11 11:30N 40°01' W 073°50'817.1
2018-Jul-11 11:00N 40°10' W 073°49'1516.8
2018-Jul-11 10:06N 40°25' W 073°49'212.8
2018-Jul-11 09:56N 40°27' W 073°50'612.8
2018-Jul-11 09:30N 40°30' W 073°56'713.5
2018-Jul-11 09:00N 40°35' W 074°02'5 9.7
2018-Jul-11 08:30N 40°39' W 074°05'3 6.0
2018-Jul-11 08:00N 40°39' W 074°09'2 4.0
2018-Jul-11 07:30N 40°41' W 074°09'0 0.8
2018-Jul-11 07:00N 40°41' W 074°09'0 0.0
2018-Jul-11 06:14N 40°41' W 074°09'0 0.0
2018-Jul-11 05:59N 40°41' W 074°09'0 0.0
2018-Jul-11 05:29N 40°41' W 074°09'0 0.0
2018-Jul-11 04:59N 40°41' W 074°09'0 0.0
2018-Jul-11 04:29N 40°41' W 074°09'0 0.0
2018-Jul-11 03:58N 40°41' W 074°09'0 0.0
2018-Jul-11 03:28N 40°41' W 074°09'0 0.0
2018-Jul-11 02:58N 40°41' W 074°09'0 0.0
2018-Jul-11 02:28N 40°41' W 074°09'0 0.0
2018-Jul-11 01:58N 40°41' W 074°09'0 0.0
2018-Jul-11 01:30N 40°41' W 074°09'0 0.0
2018-Jul-11 01:00N 40°41' W 074°09'0 0.0
2018-Jul-11 00:30N 40°41' W 074°09'0 0.0
2018-Jul-11 00:00N 40°41' W 074°09'0 0.0
2018-Jul-10 23:30N 40°41' W 074°09'0 0.0
2018-Jul-10 22:59N 40°41' W 074°09'0 0.0
2018-Jul-10 22:29N 40°41' W 074°09'0 0.0
2018-Jul-10 21:59N 40°41' W 074°09'0 0.0
2018-Jul-10 21:29N 40°41' W 074°09'0 0.0
2018-Jul-10 20:55N 40°41' W 074°09'0 0.0
2018-Jul-10 20:25N 40°41' W 074°09'0 0.0
2018-Jul-10 19:58N 40°41' W 074°09'0 0.0
2018-Jul-10 19:28N 40°41' W 074°09'0 0.0
2018-Jul-10 18:55N 40°41' W 074°09'0 0.0
2018-Jul-10 18:27N 40°41' W 074°09'0 0.0
2018-Jul-10 18:00N 40°41' W 074°09'0 0.0
2018-Jul-10 17:30N 40°41' W 074°09'0 0.1
2018-Jul-10 16:57N 40°41' W 074°09'0 0.0
2018-Jul-10 16:30N 40°41' W 074°09'0 0.0
2018-Jul-10 15:56N 40°41' W 074°09'0 0.0
2018-Jul-10 15:29N 40°41' W 074°09'0 0.0
2018-Jul-10 14:59N 40°41' W 074°09'0 0.0
2018-Jul-10 14:26N 40°41' W 074°09'0 0.0
2018-Jul-10 13:58N 40°41' W 074°09'0 0.0
2018-Jul-10 13:28N 40°41' W 074°09'0 0.0
2018-Jul-10 12:58N 40°41' W 074°09'0 0.0
2018-Jul-10 12:28N 40°41' W 074°09'0 0.0
2018-Jul-10 11:58N 40°41' W 074°09'0 0.0
2018-Jul-10 11:30N 40°41' W 074°09'0 0.0
2018-Jul-10 11:00N 40°41' W 074°09'0 0.0
2018-Jul-10 10:24N 40°41' W 074°09'0 0.0
2018-Jul-10 10:00N 40°41' W 074°09'0 0.0
2018-Jul-10 09:30N 40°41' W 074°09'0 0.0
2018-Jul-10 08:56N 40°41' W 074°09'0 0.0
2018-Jul-10 08:29N 40°41' W 074°09'0 0.0
2018-Jul-10 07:59N 40°41' W 074°09'0 0.0
2018-Jul-10 07:29N 40°41' W 074°09'0 0.0
2018-Jul-10 06:59N 40°41' W 074°09'0 0.0
2018-Jul-10 06:28N 40°41' W 074°09'0 0.0
2018-Jul-10 05:58N 40°41' W 074°09'0 0.0
2018-Jul-10 05:25N 40°41' W 074°09'0 0.0
2018-Jul-10 04:58N 40°41' W 074°09'0 0.0
2018-Jul-10 04:27N 40°41' W 074°09'0 0.0
2018-Jul-10 04:00N 40°41' W 074°09'0 0.0
2018-Jul-10 03:27N 40°41' W 074°09'0 0.0
2018-Jul-10 03:00N 40°41' W 074°09'0 0.0
2018-Jul-10 02:29N 40°41' W 074°09'0 0.0
2018-Jul-10 01:59N 40°41' W 074°09'0 0.0
2018-Jul-10 01:26N 40°41' W 074°09'0 0.0
2018-Jul-10 00:56N 40°41' W 074°09'0 0.0
2018-Jul-10 00:29N 40°41' W 074°09'0 0.0
2018-Jul-09 23:55N 40°41' W 074°09'0 0.0
2018-Jul-09 23:19N 40°41' W 074°09'0 0.0
2018-Jul-09 22:52N 40°41' W 074°09'0 0.0
2018-Jul-09 22:25N 40°41' W 074°09'0 0.0
2018-Jul-09 21:55N 40°41' W 074°09'0 0.0
2018-Jul-09 21:27N 40°41' W 074°09'0 0.0
2018-Jul-09 21:00N 40°41' W 074°09'1 1.9
2018-Jul-09 20:30N 40°40' W 074°08'2 3.1
2018-Jul-09 20:00N 40°39' W 074°09'3 6.0
2018-Jul-09 19:30N 40°39' W 074°05'4 7.3
2018-Jul-09 19:00N 40°36' W 074°02'714.3
2018-Jul-09 18:31N 40°30' W 073°57'714.2
2018-Jul-09 18:00N 40°27' W 073°48'2311.6
2018-Jul-09 16:01N 40°29' W 073°18'012.5
2018-Jul-09 15:59N 40°29' W 073°17'713.8
2018-Jul-09 15:28N 40°30' W 073°08'713.9
2018-Jul-09 15:00N 40°31' W 072°60'714.0
2018-Jul-09 14:30N 40°31' W 072°51'814.3
2018-Jul-09 13:58N 40°31' W 072°41'914.6
2018-Jul-09 13:22N 40°31' W 072°29'614.4
2018-Jul-09 12:58N 40°31' W 072°22'714.3
2018-Jul-09 12:30N 40°31' W 072°13'714.1
2018-Jul-09 12:01N 40°31' W 072°04'714.0
2018-Jul-09 11:30N 40°31' W 071°54'713.5
2018-Jul-09 11:00N 40°31' W 071°45'713.4
2018-Jul-09 10:30N 40°32' W 071°37'713.5
2018-Jul-09 09:58N 40°32' W 071°27'613.5
2018-Jul-09 09:30N 40°32' W 071°19'713.3
2018-Jul-09 09:00N 40°32' W 071°10'713.7
2018-Jul-09 08:30N 40°32' W 071°01'713.4
2018-Jul-09 08:00N 40°33' W 070°52'713.6
2018-Jul-09 07:30N 40°33' W 070°43'813.8
2018-Jul-09 06:56N 40°33' W 070°33'1114.0
2018-Jul-09 06:08N 40°33' W 070°18'514.0
2018-Jul-09 05:47N 40°33' W 070°12'414.2
2018-Jul-09 05:30N 40°33' W 070°06'714.1
2018-Jul-09 05:00N 40°33' W 069°57'714.2
2018-Jul-09 04:30N 40°34' W 069°48'714.2
2018-Jul-09 04:00N 40°34' W 069°39'  

Dump ship's entire track history